Time;durP1;ratioP1;P1;durP2;ratioP2;P2;SDS_P1;SDS_P2;PMS_P1;PMS_P2;Temp;Humidity;BMP_temperature;BMP_pressure;BME280_temperature;BME280_humidity;BME280_pressure;Samples;Min_cycle;Max_cycle;Signal;HPM_P1;HPM_P2
2024/01/12 00:01:38;;;;;;;7.72;2.05;;;3.60;99.90;;;;;;5019525;28;20394;-72
2024/01/12 00:04:04;;;;;;;10.65;1.70;;;3.50;99.90;;;;;;5017102;28;20037;-72
2024/01/12 00:06:29;;;;;;;7.32;2.30;;;3.50;99.90;;;;;;5014121;28;20037;-74
2024/01/12 00:08:55;;;;;;;10.07;1.52;;;3.50;99.90;;;;;;5024354;28;20038;-72
2024/01/12 00:11:20;;;;;;;8.02;1.13;;;3.50;99.90;;;;;;5009206;28;20029;-72
2024/01/12 00:13:46;;;;;;;9.02;2.22;;;3.50;99.90;;;;;;5017183;28;20034;-72
2024/01/12 00:16:12;;;;;;;9.75;1.63;;;3.50;99.90;;;;;;5019806;28;20168;-72
2024/01/12 00:18:38;;;;;;;12.13;1.85;;;3.50;99.90;;;;;;5022905;28;20045;-72
2024/01/12 00:21:04;;;;;;;10.82;2.05;;;3.50;99.90;;;;;;5011990;28;20486;-72
2024/01/12 00:23:29;;;;;;;8.30;2.13;;;3.50;99.90;;;;;;5013638;28;20045;-72
2024/01/12 00:25:59;;;;;;;15.65;2.90;;;3.50;99.90;;;;;;5015364;28;20049;-72
2024/01/12 00:28:28;;;;;;;7.80;1.17;;;3.50;99.90;;;;;;5020483;28;20726;-72
2024/01/12 00:30:54;;;;;;;5.20;1.38;;;3.50;99.90;;;;;;5018567;28;20079;-72
2024/01/12 00:33:21;;;;;;;9.93;2.85;;;3.40;99.90;;;;;;5019970;28;20193;-72
2024/01/12 00:35:47;;;;;;;9.77;1.70;;;3.50;99.90;;;;;;5006598;28;20026;-72
2024/01/12 00:38:13;;;;;;;5.13;0.93;;;3.40;99.90;;;;;;5015429;28;20041;-71
2024/01/12 00:40:39;;;;;;;7.57;1.65;;;3.40;99.90;;;;;;5008364;28;20529;-72
2024/01/12 00:43:04;;;;;;;6.93;1.88;;;3.40;99.90;;;;;;5014620;28;20149;-72
2024/01/12 00:45:30;;;;;;;8.52;2.40;;;3.40;99.90;;;;;;5020286;28;20033;-73
2024/01/12 00:47:55;;;;;;;10.00;1.52;;;3.40;99.90;;;;;;5013903;28;20039;-72
2024/01/12 00:50:21;;;;;;;5.57;1.13;;;3.40;99.90;;;;;;5009236;28;20397;-72
2024/01/12 00:52:47;;;;;;;8.15;1.33;;;3.40;99.90;;;;;;5014175;28;20469;-73
2024/01/12 00:55:12;;;;;;;5.65;1.58;;;3.40;99.90;;;;;;5016551;28;20034;-72
2024/01/12 00:57:38;;;;;;;8.18;1.58;;;3.40;99.90;;;;;;5027781;28;20037;-72
2024/01/12 01:00:04;;;;;;;11.07;1.58;;;3.40;99.90;;;;;;5038937;28;20034;-72
2024/01/12 01:02:30;;;;;;;3.45;1.00;;;3.50;99.90;;;;;;5024614;28;20064;-72
2024/01/12 01:04:56;;;;;;;12.40;1.73;;;3.40;99.90;;;;;;5023250;28;20120;-72
2024/01/12 01:07:22;;;;;;;8.70;1.67;;;3.40;99.90;;;;;;5015487;28;20556;-72
2024/01/12 01:09:48;;;;;;;10.52;1.50;;;3.40;99.90;;;;;;5009162;28;20042;-72
2024/01/12 01:12:13;;;;;;;8.52;1.77;;;3.40;99.90;;;;;;5023589;28;20490;-72
2024/01/12 01:14:39;;;;;;;7.47;1.75;;;3.40;99.90;;;;;;5007918;28;20141;-73
2024/01/12 01:17:04;;;;;;;8.90;2.28;;;3.40;99.90;;;;;;5019357;28;20050;-72
2024/01/12 01:19:30;;;;;;;11.73;2.15;;;3.30;99.90;;;;;;5016915;28;20037;-73
2024/01/12 01:21:56;;;;;;;10.93;1.30;;;3.30;99.90;;;;;;5015507;28;20509;-74
2024/01/12 01:24:21;;;;;;;10.52;2.05;;;3.30;99.90;;;;;;5019409;28;20053;-72
2024/01/12 01:26:47;;;;;;;23.17;2.80;;;3.30;99.90;;;;;;5010287;28;20041;-72
2024/01/12 01:29:12;;;;;;;8.50;1.48;;;3.30;99.90;;;;;;5008164;28;20042;-72
2024/01/12 01:31:38;;;;;;;15.32;1.98;;;3.40;99.90;;;;;;5016283;28;20486;-71
2024/01/12 01:34:04;;;;;;;8.10;1.88;;;3.40;99.90;;;;;;5017937;28;20068;-72
2024/01/12 01:36:29;;;;;;;7.82;1.27;;;3.40;99.90;;;;;;5024633;28;20083;-72
2024/01/12 01:38:55;;;;;;;8.02;1.33;;;3.50;99.90;;;;;;5021240;28;20413;-73
2024/01/12 01:41:20;;;;;;;7.72;1.45;;;3.50;99.90;;;;;;5021291;28;20088;-73
2024/01/12 01:43:46;;;;;;;9.35;2.40;;;3.50;99.90;;;;;;5020366;28;20524;-72
2024/01/12 01:46:12;;;;;;;10.88;1.70;;;3.50;99.90;;;;;;5010123;28;20164;-72
2024/01/12 01:48:37;;;;;;;10.25;1.48;;;3.60;99.90;;;;;;5015849;28;20038;-72
2024/01/12 01:51:03;;;;;;;14.48;1.88;;;3.60;99.90;;;;;;5013600;28;20041;-73
2024/01/12 01:53:29;;;;;;;14.65;1.48;;;3.60;99.90;;;;;;5016046;28;20057;-72
2024/01/12 01:55:55;;;;;;;11.52;1.73;;;3.60;99.90;;;;;;5027645;28;20050;-73
2024/01/12 01:58:21;;;;;;;9.60;1.40;;;3.60;99.90;;;;;;5032344;28;20053;-72
2024/01/12 02:00:49;;;;;;;5.45;1.27;;;3.50;99.90;;;;;;5025636;28;20110;-72
2024/01/12 02:03:15;;;;;;;10.52;1.95;;;3.50;99.90;;;;;;5010943;28;20026;-72
2024/01/12 02:05:42;;;;;;;4.90;1.00;;;3.50;99.90;;;;;;5009696;28;20060;-72
2024/01/12 02:08:08;;;;;;;7.55;1.77;;;3.50;99.90;;;;;;5026295;28;20041;-72
2024/01/12 02:10:33;;;;;;;6.35;1.17;;;3.50;99.90;;;;;;5021138;28;20034;-72
2024/01/12 02:12:59;;;;;;;18.20;2.35;;;3.60;99.90;;;;;;5017044;28;20030;-72
2024/01/12 02:15:25;;;;;;;6.25;0.95;;;3.70;99.90;;;;;;5024449;28;20041;-71
2024/01/12 02:17:50;;;;;;;3.78;0.88;;;3.70;99.90;;;;;;5018145;28;20034;-72
2024/01/12 02:20:16;;;;;;;6.82;1.40;;;3.70;99.90;;;;;;5012423;28;20128;-72
2024/01/12 02:22:42;;;;;;;10.88;1.70;;;3.80;99.90;;;;;;5018366;28;20531;-73
2024/01/12 02:25:08;;;;;;;3.10;0.95;;;3.70;99.90;;;;;;5012828;28;20048;-71
2024/01/12 02:27:34;;;;;;;14.57;1.58;;;3.70;99.90;;;;;;5007239;28;20026;-72
2024/01/12 02:29:59;;;;;;;13.05;2.25;;;3.70;99.90;;;;;;5010472;28;20129;-71
2024/01/12 02:32:25;;;;;;;4.22;0.85;;;3.70;99.90;;;;;;5008779;28;20120;-72
2024/01/12 02:34:51;;;;;;;8.95;1.70;;;3.70;99.90;;;;;;5013258;28;20141;-72
2024/01/12 02:37:17;;;;;;;8.60;1.77;;;3.70;99.90;;;;;;5021643;28;20033;-72
2024/01/12 02:39:42;;;;;;;6.30;1.13;;;3.70;99.90;;;;;;5018707;28;20064;-71
2024/01/12 02:42:08;;;;;;;9.68;1.95;;;3.70;99.90;;;;;;5011870;28;20038;-72
2024/01/12 02:44:33;;;;;;;7.30;1.80;;;3.70;99.90;;;;;;5008659;28;20034;-73
2024/01/12 02:46:59;;;;;;;4.82;0.85;;;3.70;99.90;;;;;;5019042;28;20120;-72
2024/01/12 02:49:24;;;;;;;8.88;2.17;;;3.80;99.90;;;;;;5022751;28;20809;-72
2024/01/12 02:51:50;;;;;;;17.10;2.85;;;3.80;99.90;;;;;;5017957;28;20045;-74
2024/01/12 02:54:16;;;;;;;13.45;2.53;;;3.80;99.90;;;;;;5016385;28;20128;-71
2024/01/12 02:56:41;;;;;;;5.50;1.10;;;3.80;99.90;;;;;;5008973;28;20040;-72
2024/01/12 02:59:07;;;;;;;6.85;1.52;;;3.90;99.90;;;;;;5044831;28;20485;-72
2024/01/12 03:01:34;;;;;;;9.05;0.82;;;3.90;99.90;;;;;;5045149;28;20108;-72
2024/01/12 03:04:00;;;;;;;9.85;2.22;;;3.90;99.90;;;;;;5025971;28;20045;-72
2024/01/12 03:06:25;;;;;;;3.80;0.95;;;3.80;99.90;;;;;;5010775;28;20398;-71
2024/01/12 03:08:51;;;;;;;8.75;1.17;;;3.80;99.90;;;;;;5043928;28;20037;-72
2024/01/12 03:11:16;;;;;;;2.65;0.80;;;3.80;99.90;;;;;;5026822;28;20022;-71
2024/01/12 03:13:42;;;;;;;6.30;0.95;;;3.80;99.90;;;;;;5019192;28;20026;-73
2024/01/12 03:16:18;;;;;;;11.27;2.40;;;3.80;99.90;;;;;;5008920;28;20058;-73
2024/01/12 03:18:44;;;;;;;11.68;1.58;;;3.80;99.90;;;;;;5019953;28;20038;-71
2024/01/12 03:21:10;;;;;;;8.27;0.88;;;3.80;99.90;;;;;;5017075;28;20521;-72
2024/01/12 03:23:35;;;;;;;6.35;0.80;;;3.80;99.90;;;;;;5017061;28;20041;-72
2024/01/12 03:26:01;;;;;;;8.73;1.23;;;3.70;99.90;;;;;;5012561;28;20037;-72
2024/01/12 03:28:26;;;;;;;9.35;0.98;;;3.80;99.90;;;;;;5010543;28;20398;-72
2024/01/12 03:30:52;;;;;;;6.10;1.13;;;3.70;99.90;;;;;;5015189;28;20041;-72
2024/01/12 03:33:17;;;;;;;8.80;1.73;;;3.80;99.90;;;;;;5020073;28;20245;-72
2024/01/12 03:35:43;;;;;;;5.30;1.10;;;3.70;99.90;;;;;;5021742;28;20045;-73
2024/01/12 03:38:12;;;;;;;5.28;0.80;;;3.70;99.90;;;;;;5020970;28;20045;-72
2024/01/12 03:40:37;;;;;;;8.45;0.88;;;3.70;99.90;;;;;;5013664;28;20040;-72
2024/01/12 03:43:03;;;;;;;5.70;1.48;;;3.70;99.90;;;;;;5018461;28;20045;-73
2024/01/12 03:45:28;;;;;;;3.58;0.95;;;3.70;99.90;;;;;;5025966;28;20032;-73
2024/01/12 03:47:54;;;;;;;17.80;1.80;;;3.70;99.90;;;;;;5014316;28;20065;-72
2024/01/12 03:50:20;;;;;;;6.60;1.02;;;3.70;99.90;;;;;;5018107;28;20652;-72
2024/01/12 03:52:46;;;;;;;3.88;0.80;;;3.70;99.90;;;;;;5010832;28;20034;-72
2024/01/12 03:55:11;;;;;;;11.27;1.67;;;3.80;99.90;;;;;;5014579;28;20049;-72
2024/01/12 03:57:37;;;;;;;6.38;0.75;;;3.70;99.90;;;;;;5020289;28;20056;-74
2024/01/12 04:00:04;;;;;;;9.38;1.25;;;3.80;99.90;;;;;;5024185;28;20168;-72
2024/01/12 04:02:30;;;;;;;6.22;0.80;;;3.80;99.90;;;;;;5025630;28;20044;-74
2024/01/12 04:04:55;;;;;;;8.15;1.52;;;3.80;99.90;;;;;;5024851;28;20033;-72
2024/01/12 04:07:21;;;;;;;4.18;0.80;;;3.80;99.90;;;;;;5030839;28;20033;-72
2024/01/12 04:09:47;;;;;;;3.30;0.90;;;3.90;99.90;;;;;;5025727;28;20045;-72
2024/01/12 04:12:12;;;;;;;8.05;1.00;;;3.90;99.90;;;;;;5021800;28;20030;-72
2024/01/12 04:14:38;;;;;;;6.00;2.13;;;4.00;99.90;;;;;;5015790;28;20053;-73
2024/01/12 04:17:04;;;;;;;5.68;1.20;;;3.90;99.90;;;;;;5021113;28;20037;-71
2024/01/12 04:19:30;;;;;;;3.97;1.60;;;4.00;99.90;;;;;;5017591;28;20037;-74
2024/01/12 04:21:56;;;;;;;9.07;1.10;;;3.90;99.90;;;;;;5022340;28;20039;-73
2024/01/12 04:24:21;;;;;;;8.70;0.77;;;3.90;99.90;;;;;;5026308;28;20069;-72
2024/01/12 04:26:47;;;;;;;7.88;1.50;;;3.90;99.90;;;;;;5025034;28;20120;-73
2024/01/12 04:29:12;;;;;;;5.93;1.17;;;3.90;99.90;;;;;;5023478;28;20026;-72
2024/01/12 04:31:41;;;;;;;7.82;0.77;;;3.90;99.90;;;;;;5016848;28;20037;-72
2024/01/12 04:34:07;;;;;;;12.85;1.42;;;3.90;99.90;;;;;;5024116;28;20033;-72
2024/01/12 04:36:32;;;;;;;5.93;1.15;;;3.80;99.90;;;;;;5025093;28;20497;-72
2024/01/12 04:38:58;;;;;;;1.60;0.80;;;3.90;99.90;;;;;;5023679;28;20048;-72
2024/01/12 04:41:23;;;;;;;3.85;1.33;;;3.80;99.90;;;;;;5024651;28;20124;-70
2024/01/12 04:43:49;;;;;;;6.85;1.10;;;3.80;99.90;;;;;;5026742;28;20033;-71
2024/01/12 04:46:15;;;;;;;8.75;1.30;;;3.70;99.90;;;;;;5023972;28;20512;-72
2024/01/12 04:48:40;;;;;;;4.72;1.02;;;3.70;99.90;;;;;;5018655;28;20141;-72
2024/01/12 04:51:06;;;;;;;6.20;0.88;;;3.70;99.90;;;;;;5021352;28;20097;-72
2024/01/12 04:53:31;;;;;;;9.57;1.77;;;3.60;99.90;;;;;;5024080;28;20393;-71
2024/01/12 04:55:57;;;;;;;5.95;0.95;;;3.60;99.90;;;;;;5020140;28;20033;-72
2024/01/12 04:58:22;;;;;;;5.90;1.55;;;3.60;99.90;;;;;;5024583;28;20277;-72
2024/01/12 05:00:48;;;;;;;10.63;1.50;;;3.50;99.90;;;;;;5025408;28;20068;-72
2024/01/12 05:03:14;;;;;;;14.82;2.42;;;3.50;99.90;;;;;;5024403;28;20038;-72
2024/01/12 05:05:39;;;;;;;3.55;0.65;;;3.50;99.90;;;;;;5026251;28;20032;-72
2024/01/12 05:08:05;;;;;;;13.57;1.70;;;3.50;99.90;;;;;;5023599;28;20722;-72
2024/01/12 05:10:30;;;;;;;8.40;1.10;;;3.50;99.90;;;;;;5012259;28;20713;-72
2024/01/12 05:12:56;;;;;;;2.00;0.80;;;3.40;99.90;;;;;;5004217;28;20107;-74
2024/01/12 05:15:22;;;;;;;7.63;1.25;;;3.40;99.90;;;;;;5020258;28;20057;-72
2024/01/12 05:17:47;;;;;;;7.72;1.00;;;3.40;99.90;;;;;;5023422;28;20056;-71
2024/01/12 05:20:13;;;;;;;8.35;1.63;;;3.40;99.90;;;;;;5007626;28;20525;-72
2024/01/12 05:22:38;;;;;;;5.50;1.52;;;3.40;99.90;;;;;;5014403;28;20029;-72
2024/01/12 05:25:05;;;;;;;5.32;0.98;;;3.40;99.90;;;;;;5020705;28;20073;-72
2024/01/12 05:27:30;;;;;;;5.75;0.90;;;3.40;99.90;;;;;;5016829;28;20049;-72
2024/01/12 05:29:56;;;;;;;9.38;1.20;;;3.40;99.90;;;;;;5006913;28;20402;-71
2024/01/12 05:32:22;;;;;;;8.77;1.20;;;3.40;99.90;;;;;;5007886;28;20762;-73
2024/01/12 05:34:47;;;;;;;3.08;1.15;;;3.40;99.90;;;;;;5010708;28;20038;-72
2024/01/12 05:37:13;;;;;;;4.70;0.98;;;3.40;99.90;;;;;;5028477;28;20040;-72
2024/01/12 05:39:38;;;;;;;5.53;1.38;;;3.40;99.90;;;;;;5028023;28;20436;-72
2024/01/12 05:42:04;;;;;;;6.70;1.67;;;3.40;99.90;;;;;;5025394;28;20037;-72
2024/01/12 05:44:30;;;;;;;4.45;0.98;;;3.50;99.90;;;;;;5025855;28;20037;-72
2024/01/12 05:46:56;;;;;;;4.28;1.20;;;3.50;99.90;;;;;;5015099;28;20057;-72
2024/01/12 05:49:21;;;;;;;6.40;1.35;;;3.50;99.90;;;;;;5007018;28;20129;-72
2024/01/12 05:51:47;;;;;;;6.53;1.08;;;3.50;99.90;;;;;;5024199;28;20038;-72
2024/01/12 05:54:13;;;;;;;10.25;1.45;;;3.50;99.90;;;;;;5027016;28;20421;-72
2024/01/12 05:56:38;;;;;;;4.93;1.00;;;3.50;99.90;;;;;;5029897;28;20034;-72
2024/01/12 05:59:04;;;;;;;3.92;1.10;;;3.50;99.90;;;;;;5045588;28;20037;-72
2024/01/12 06:01:31;;;;;;;5.65;1.15;;;3.50;99.90;;;;;;5038179;28;20049;-72
2024/01/12 06:03:56;;;;;;;10.07;1.15;;;3.60;99.90;;;;;;5027397;28;20033;-72
2024/01/12 06:06:23;;;;;;;7.55;1.60;;;3.60;99.90;;;;;;5026895;28;20045;-72
2024/01/12 06:08:50;;;;;;;4.75;0.90;;;3.50;99.90;;;;;;5035498;28;20029;-71
2024/01/12 06:11:16;;;;;;;9.52;1.63;;;3.50;99.90;;;;;;5026933;28;20164;-72
2024/01/12 06:13:42;;;;;;;8.15;1.00;;;3.50;99.90;;;;;;5027355;28;20198;-72
2024/01/12 06:16:07;;;;;;;1.85;1.05;;;3.50;99.90;;;;;;5026680;28;20400;-72
2024/01/12 06:18:33;;;;;;;6.70;1.50;;;3.50;99.90;;;;;;5029289;28;20033;-72
2024/01/12 06:20:58;;;;;;;10.27;1.08;;;3.40;99.90;;;;;;5026466;28;20509;-73
2024/01/12 06:23:24;;;;;;;3.10;0.98;;;3.50;99.90;;;;;;5028525;28;20049;-72
2024/01/12 06:25:50;;;;;;;10.68;2.55;;;3.40;99.90;;;;;;5013703;28;20168;-74
2024/01/12 06:28:15;;;;;;;5.85;1.23;;;3.50;99.90;;;;;;5028150;28;20029;-73
2024/01/12 06:30:41;;;;;;;4.95;1.15;;;3.40;99.90;;;;;;5028146;28;20425;-73
2024/01/12 06:33:07;;;;;;;5.47;1.20;;;3.40;99.90;;;;;;5026550;28;20033;-72
2024/01/12 06:35:32;;;;;;;6.10;1.35;;;3.40;99.90;;;;;;5027109;28;20482;-72
2024/01/12 06:37:58;;;;;;;3.58;0.95;;;3.40;99.90;;;;;;5026554;28;20034;-73
2024/01/12 06:40:23;;;;;;;7.82;1.00;;;3.40;99.90;;;;;;5027064;28;20056;-72
2024/01/12 06:42:49;;;;;;;7.63;1.35;;;3.40;99.90;;;;;;5026891;28;20099;-72
2024/01/12 06:45:15;;;;;;;2.22;0.88;;;3.40;99.90;;;;;;5027379;28;20029;-73
2024/01/12 06:47:41;;;;;;;10.80;1.58;;;3.40;99.90;;;;;;5026842;28;20113;-72
2024/01/12 06:50:07;;;;;;;6.00;0.98;;;3.40;99.90;;;;;;5026995;28;20124;-72
2024/01/12 06:52:33;;;;;;;6.28;1.40;;;3.40;99.90;;;;;;5024631;28;20040;-72
2024/01/12 06:54:58;;;;;;;5.05;0.98;;;3.30;99.90;;;;;;5008032;28;20670;-72
2024/01/12 06:57:24;;;;;;;3.80;1.20;;;3.40;99.90;;;;;;5026329;28;20060;-71
2024/01/12 06:59:49;;;;;;;1.70;0.90;;;3.30;99.90;;;;;;5017686;28;20136;-73
2024/01/12 07:02:15;;;;;;;4.68;1.20;;;3.30;99.90;;;;;;5008998;28;20049;-73
2024/01/12 07:04:41;;;;;;;5.80;1.25;;;3.30;99.90;;;;;;5021459;28;20098;-72
2024/01/12 07:07:09;;;;;;;3.72;1.40;;;3.30;99.90;;;;;;5025546;28;20033;-72
2024/01/12 07:09:34;;;;;;;7.03;1.55;;;3.40;99.90;;;;;;5012768;28;20041;-72
2024/01/12 07:12:00;;;;;;;5.75;1.95;;;3.40;99.90;;;;;;5007535;28;20172;-74
2024/01/12 07:14:26;;;;;;;5.80;1.33;;;3.40;99.90;;;;;;5014228;28;20053;-73
2024/01/12 07:16:51;;;;;;;4.75;1.17;;;3.30;99.90;;;;;;5019907;28;20438;-72
2024/01/12 07:19:17;;;;;;;19.40;2.03;;;3.40;99.90;;;;;;5022703;28;20053;-72
2024/01/12 07:21:43;;;;;;;11.95;1.40;;;3.30;99.90;;;;;;5026462;28;20041;-71
2024/01/12 07:24:09;;;;;;;10.68;2.88;;;3.40;99.90;;;;;;5023146;28;20033;-72
2024/01/12 07:26:34;;;;;;;9.43;1.60;;;3.30;99.90;;;;;;5025220;28;20191;-73
2024/01/12 07:29:00;;;;;;;4.30;1.48;;;3.30;99.90;;;;;;5025842;28;20044;-71
2024/01/12 07:31:26;;;;;;;6.35;1.85;;;3.40;99.90;;;;;;5020603;28;20038;-72
2024/01/12 07:33:52;;;;;;;12.98;3.75;;;3.30;99.90;;;;;;5019837;28;20582;-71
2024/01/12 07:36:18;;;;;;;6.97;2.90;;;3.40;99.90;;;;;;5022713;28;20478;-72
2024/01/12 07:38:43;;;;;;;8.25;1.98;;;3.40;99.90;;;;;;5022084;28;20041;-72
2024/01/12 07:41:09;;;;;;;4.93;1.60;;;3.40;99.90;;;;;;5007806;28;20116;-72
2024/01/12 07:43:34;;;;;;;7.60;1.85;;;3.40;99.90;;;;;;5014157;28;20549;-72
2024/01/12 07:46:00;;;;;;;9.82;2.45;;;3.40;99.90;;;;;;5025300;28;20033;-72
2024/01/12 07:48:26;;;;;;;7.97;2.08;;;3.40;99.90;;;;;;5013761;28;20581;-72
2024/01/12 07:50:51;;;;;;;5.80;1.70;;;3.40;99.90;;;;;;5007707;28;20042;-72
2024/01/12 07:53:17;;;;;;;10.43;1.88;;;3.40;99.90;;;;;;5009912;28;20042;-72
2024/01/12 07:55:43;;;;;;;11.98;3.25;;;3.40;99.90;;;;;;5021421;28;20832;-72
2024/01/12 07:58:09;;;;;;;7.82;2.58;;;3.40;99.90;;;;;;5026006;28;20112;-73
2024/01/12 08:00:34;;;;;;;9.45;2.08;;;3.40;99.90;;;;;;5023328;28;20045;-72
2024/01/12 08:03:00;;;;;;;7.53;2.08;;;3.40;99.90;;;;;;5025223;28;20076;-73
2024/01/12 08:05:25;;;;;;;6.60;1.90;;;3.40;99.90;;;;;;5022008;28;20468;-72
2024/01/12 08:07:51;;;;;;;9.13;2.08;;;3.40;99.90;;;;;;5026974;28;20041;-72
2024/01/12 08:10:18;;;;;;;11.63;2.20;;;3.40;99.90;;;;;;5025661;28;20049;-72
2024/01/12 08:12:48;;;;;;;6.82;2.03;;;3.40;99.90;;;;;;5019536;28;20030;-71
2024/01/12 08:15:13;;;;;;;8.07;2.07;;;3.40;99.90;;;;;;5024782;28;20041;-72
2024/01/12 08:17:40;;;;;;;7.60;2.47;;;3.40;99.90;;;;;;5023491;28;20087;-73
2024/01/12 08:20:06;;;;;;;10.75;1.85;;;3.40;99.90;;;;;;5042519;28;20041;-73
2024/01/12 08:22:32;;;;;;;9.10;2.33;;;3.50;99.90;;;;;;5025816;28;20497;-72
2024/01/12 08:24:58;;;;;;;7.93;2.33;;;3.50;99.90;;;;;;5023774;28;20041;-72
2024/01/12 08:27:24;;;;;;;4.93;1.45;;;3.50;99.90;;;;;;5026391;28;20029;-72
2024/01/12 08:29:49;;;;;;;5.93;1.80;;;3.50;99.90;;;;;;5024155;28;20056;-74
2024/01/12 08:32:15;;;;;;;13.02;2.22;;;3.50;99.90;;;;;;5024689;28;20163;-71
2024/01/12 08:34:41;;;;;;;6.90;2.38;;;3.50;99.90;;;;;;5020996;28;20056;-73
2024/01/12 08:37:06;;;;;;;8.02;1.77;;;3.50;99.90;;;;;;5019902;28;20045;-72
2024/01/12 08:39:33;;;;;;;6.68;1.83;;;3.50;99.90;;;;;;5023359;28;20464;-73
2024/01/12 08:41:58;;;;;;;7.68;2.17;;;3.60;99.90;;;;;;5028799;28;20403;-72
2024/01/12 08:44:24;;;;;;;15.02;2.05;;;3.60;99.90;;;;;;5006694;28;20034;-72
2024/01/12 08:46:53;;;;;;;8.57;1.80;;;3.60;99.90;;;;;;5005652;28;20038;-73
2024/01/12 08:49:19;;;;;;;5.40;2.50;;;3.70;99.90;;;;;;5012148;28;20398;-71
2024/01/12 08:51:46;;;;;;;7.13;1.77;;;3.60;99.90;;;;;;5005173;28;20042;-72
2024/01/12 08:54:12;;;;;;;6.63;1.92;;;3.70;99.90;;;;;;5015058;28;20030;-71
2024/01/12 08:56:37;;;;;;;6.72;1.67;;;3.80;99.90;;;;;;5020663;28;20517;-71
2024/01/12 08:59:03;;;;;;;10.07;1.73;;;3.80;99.90;;;;;;5019763;28;20049;-72
2024/01/12 09:01:29;;;;;;;6.82;1.77;;;3.80;99.90;;;;;;5026215;28;20896;-71
2024/01/12 09:03:54;;;;;;;6.47;2.05;;;3.80;99.90;;;;;;5024507;28;20175;-72
2024/01/12 09:06:23;;;;;;;4.68;2.17;;;3.80;99.90;;;;;;5016914;28;20044;-72
2024/01/12 09:08:50;;;;;;;13.77;2.83;;;3.80;99.90;;;;;;5025163;28;20836;-73
2024/01/12 09:11:16;;;;;;;8.68;2.17;;;3.90;99.90;;;;;;5007696;28;20053;-72
2024/01/12 09:13:41;;;;;;;12.32;2.22;;;3.90;99.90;;;;;;5006992;28;20108;-73
2024/01/12 09:16:10;;;;;;;12.30;3.35;;;3.90;99.90;;;;;;5008482;28;20107;-72
2024/01/12 09:18:36;;;;;;;10.05;2.47;;;4.00;99.90;;;;;;5009215;28;20140;-72
2024/01/12 09:21:01;;;;;;;10.45;2.70;;;3.90;99.90;;;;;;5014306;28;20117;-72
2024/01/12 09:23:27;;;;;;;13.00;2.50;;;4.00;99.90;;;;;;5026214;28;20021;-71
2024/01/12 09:25:54;;;;;;;13.82;2.75;;;4.00;99.90;;;;;;5024422;28;20041;-72
2024/01/12 09:28:20;;;;;;;5.90;2.00;;;4.10;99.90;;;;;;5019592;28;20475;-72
2024/01/12 09:30:46;;;;;;;6.50;1.73;;;4.10;99.90;;;;;;5005994;28;20045;-72
2024/01/12 09:33:12;;;;;;;9.15;2.40;;;4.10;99.90;;;;;;5004358;28;20124;-71
2024/01/12 09:35:38;;;;;;;7.53;2.38;;;4.20;99.90;;;;;;5019440;28;20080;-71
2024/01/12 09:38:04;;;;;;;10.35;2.85;;;4.20;99.90;;;;;;5004292;28;20033;-72
2024/01/12 09:40:30;;;;;;;9.40;3.05;;;4.30;99.90;;;;;;5004604;28;20764;-72
2024/01/12 09:42:57;;;;;;;12.57;3.53;;;4.30;99.90;;;;;;5007417;28;20038;-72
2024/01/12 09:45:25;;;;;;;26.02;5.93;;;4.30;99.90;;;;;;5025461;28;20034;-72
2024/01/12 09:47:51;;;;;;;38.33;11.63;;;4.40;99.90;;;;;;5020952;28;20405;-72
2024/01/12 09:50:21;;;;;;;27.40;8.45;;;4.40;99.90;;;;;;5010068;28;20034;-71
2024/01/12 09:52:48;;;;;;;17.80;4.70;;;4.50;99.90;;;;;;5024923;28;20037;-72
2024/01/12 09:55:13;;;;;;;11.73;3.50;;;4.50;99.90;;;;;;5022892;28;20536;-72
2024/01/12 09:57:39;;;;;;;9.60;2.38;;;4.50;99.90;;;;;;5020077;28;20041;-73
2024/01/12 10:00:09;;;;;;;8.73;2.20;;;4.60;99.90;;;;;;5005192;28;20096;-73
2024/01/12 10:02:35;;;;;;;9.27;2.10;;;4.60;99.90;;;;;;5012117;28;20114;-72
2024/01/12 10:05:00;;;;;;;12.57;2.13;;;4.60;99.90;;;;;;5024095;28;20482;-72
2024/01/12 10:07:26;;;;;;;6.70;2.03;;;4.70;99.90;;;;;;5019666;28;20402;-74
2024/01/12 10:09:52;;;;;;;10.05;2.03;;;4.80;99.90;;;;;;5025255;28;20421;-73
2024/01/12 10:12:18;;;;;;;12.77;2.00;;;4.90;99.90;;;;;;5026947;28;20061;-73
2024/01/12 10:14:44;;;;;;;8.05;1.60;;;5.00;99.90;;;;;;5026569;28;20444;-72
2024/01/12 10:17:11;;;;;;;7.57;1.60;;;5.00;99.90;;;;;;5027273;28;20041;-73
2024/01/12 10:19:37;;;;;;;12.55;1.55;;;5.10;99.90;;;;;;5027460;28;20079;-72
2024/01/12 10:22:03;;;;;;;18.55;2.72;;;5.10;99.90;;;;;;5019601;28;20042;-73
2024/01/12 10:24:30;;;;;;;6.75;1.48;;;5.10;99.90;;;;;;5023597;28;20033;-73
2024/01/12 10:27:01;;;;;;;6.35;1.08;;;5.20;99.90;;;;;;5027985;28;20091;-71
2024/01/12 10:29:26;;;;;;;10.55;1.98;;;5.20;99.90;;;;;;5027328;28;20116;-72
2024/01/12 10:31:52;;;;;;;12.98;2.08;;;5.20;99.90;;;;;;5028352;28;20572;-73
2024/01/12 10:34:20;;;;;;;14.75;2.15;;;5.30;99.90;;;;;;5022465;28;20606;-73
2024/01/12 10:36:49;;;;;;;7.90;1.50;;;5.20;99.90;;;;;;5013848;28;20095;-73
2024/01/12 10:39:19;;;;;;;13.85;2.47;;;5.30;99.90;;;;;;5025020;28;20497;-71
2024/01/12 10:41:46;;;;;;;10.05;1.65;;;5.30;99.90;;;;;;5028855;28;20057;-73
2024/01/12 10:44:15;;;;;;;15.45;1.65;;;5.30;99.90;;;;;;5027844;28;20040;-72
2024/01/12 10:46:48;;;;;;;8.88;1.33;;;5.30;99.90;;;;;;5014101;28;20048;-71
2024/01/12 10:49:18;;;;;;;5.70;1.45;;;5.40;99.90;;;;;;5007793;28;20030;-72
2024/01/12 10:52:06;;;;;;;10.57;1.98;;;5.40;99.90;;;;;;5023854;28;20042;-72
2024/01/12 10:55:04;;;;;;;5.85;1.63;;;5.50;99.90;;;;;;5020142;28;20057;-73
2024/01/12 10:57:32;;;;;;;7.95;1.77;;;5.50;99.90;;;;;;5036616;28;20033;-73
2024/01/12 10:59:58;;;;;;;8.68;1.40;;;5.50;99.90;;;;;;5023978;28;20057;-72
2024/01/12 11:02:25;;;;;;;10.00;1.63;;;5.50;99.90;;;;;;5022722;28;20490;-72
2024/01/12 11:04:51;;;;;;;10.02;1.75;;;5.60;99.90;;;;;;5022878;28;20029;-72
2024/01/12 11:07:17;;;;;;;6.50;0.90;;;5.70;99.90;;;;;;5023709;28;20025;-72
2024/01/12 11:09:43;;;;;;;6.20;1.65;;;5.70;99.90;;;;;;5037864;28;20037;-72
2024/01/12 11:12:30;;;;;;;11.60;2.20;;;5.70;99.90;;;;;;5042936;28;20025;-72
2024/01/12 11:14:56;;;;;;;20.58;3.35;;;5.70;99.90;;;;;;5026450;28;20048;-74
2024/01/12 11:17:29;;;;;;;7.65;1.95;;;5.80;99.90;;;;;;5018745;28;20046;-72
2024/01/12 11:20:10;;;;;;;9.00;1.58;;;5.80;99.90;;;;;;5017199;28;20038;-72
2024/01/12 11:22:37;;;;;;;8.13;0.90;;;5.80;99.90;;;;;;5013514;28;20410;-72
2024/01/12 11:25:04;;;;;;;9.60;0.98;;;5.90;99.90;;;;;;5017896;28;20056;-71
2024/01/12 11:27:50;;;;;;;9.23;0.90;;;5.90;99.90;;;;;;5026496;28;20118;-72
2024/01/12 11:30:18;;;;;;;9.13;0.90;;;6.00;99.90;;;;;;5024384;28;20065;-72
2024/01/12 11:32:44;;;;;;;9.60;1.02;;;6.00;99.90;;;;;;5011225;28;20076;-72
2024/01/12 11:35:14;;;;;;;9.00;1.00;;;6.10;99.90;;;;;;5025820;28;20168;-72
2024/01/12 11:37:42;;;;;;;8.73;1.35;;;6.10;99.90;;;;;;5006221;28;20091;-71
2024/01/12 11:40:13;;;;;;;6.57;1.10;;;6.00;99.90;;;;;;5022164;28;20033;-72
2024/01/12 11:42:40;;;;;;;10.95;1.40;;;6.10;99.90;;;;;;5025949;28;20041;-72
2024/01/12 11:45:11;;;;;;;11.95;1.13;;;6.00;99.90;;;;;;5009481;28;20042;-72
2024/01/12 11:47:41;;;;;;;5.15;0.80;;;6.00;99.90;;;;;;5025596;28;20068;-72
2024/01/12 11:50:09;;;;;;;7.20;1.08;;;6.00;99.90;;;;;;5023988;28;20496;-71
2024/01/12 11:52:36;;;;;;;5.20;1.00;;;5.90;99.90;;;;;;5023200;28;20037;-72
2024/01/12 11:55:04;;;;;;;12.35;2.35;;;5.90;99.90;;;;;;5017404;28;20421;-73
2024/01/12 11:57:30;;;;;;;2.70;0.75;;;5.90;99.90;;;;;;5025275;28;20067;-74
2024/01/12 11:59:56;;;;;;;3.50;0.57;;;6.00;99.90;;;;;;5027160;28;20045;-71
2024/01/12 12:02:24;;;;;;;4.28;0.70;;;6.10;99.90;;;;;;5024656;28;20064;-72
2024/01/12 12:04:54;;;;;;;8.23;1.20;;;6.10;99.90;;;;;;5021316;28;20033;-72
2024/01/12 12:07:24;;;;;;;4.97;1.00;;;6.10;99.90;;;;;;5017319;28;20037;-71
2024/01/12 12:09:49;;;;;;;4.50;0.57;;;6.10;99.90;;;;;;5031842;28;20037;-72
2024/01/12 12:12:15;;;;;;;2.20;0.45;;;6.10;99.90;;;;;;5046119;28;20037;-72
2024/01/12 12:15:12;;;;;;;4.57;0.40;;;6.20;99.90;;;;;;5046240;28;20807;-72
2024/01/12 12:17:43;;;;;;;0.98;0.30;;;6.10;99.90;;;;;;5027856;28;20555;-74
2024/01/12 12:20:11;;;;;;;1.05;0.20;;;6.20;99.90;;;;;;5023938;28;20034;-73
2024/01/12 12:22:41;;;;;;;3.35;0.30;;;6.20;99.90;;;;;;5007372;28;20061;-72
2024/01/12 12:25:12;;;;;;;2.07;0.80;;;6.20;99.90;;;;;;5009810;28;20095;-72
2024/01/12 12:27:46;;;;;;;4.15;0.30;;;6.30;99.90;;;;;;5006696;28;20038;-73
2024/01/12 12:30:13;;;;;;;2.70;0.20;;;6.30;99.90;;;;;;5018808;28;20501;-72
2024/01/12 12:32:40;;;;;;;3.20;0.60;;;6.20;99.90;;;;;;5023123;28;20034;-72
2024/01/12 12:35:17;;;;;;;3.83;0.30;;;6.30;99.90;;;;;;5025976;28;20885;-71
2024/01/12 12:37:43;;;;;;;5.45;0.85;;;6.30;99.90;;;;;;5025419;28;20034;-71
2024/01/12 12:40:13;;;;;;;5.40;0.20;;;6.30;99.90;;;;;;5016420;28;20049;-71
2024/01/12 12:42:40;;;;;;;8.90;1.50;;;6.30;99.90;;;;;;5025736;28;20041;-71
2024/01/12 12:45:07;;;;;;;3.25;0.30;;;6.40;99.90;;;;;;5025285;28;20041;-73
2024/01/12 12:47:33;;;;;;;2.00;0.32;;;6.40;99.90;;;;;;5026759;28;20029;-72
2024/01/12 12:49:59;;;;;;;1.35;0.30;;;6.40;99.90;;;;;;5019337;28;20038;-72
2024/01/12 12:52:25;;;;;;;2.53;0.60;;;6.50;99.90;;;;;;5006218;28;20041;-72